Time;durP1;ratioP1;P1;durP2;ratioP2;P2;SDS_P1;SDS_P2;PMS_P1;PMS_P2;Temp;Humidity;BMP_temperature;BMP_pressure;BME280_temperature;BME280_humidity;BME280_pressure;Samples;Min_cycle;Max_cycle;Signal;HPM_P1;HPM_P2
2023/07/09 00:01:43;;;;;;;4.55;3.30;;;;;;;;;;5071518;28;20261;-70
2023/07/09 00:04:11;;;;;;;4.40;3.45;;;;;;;;;;5073452;28;20210;-68
2023/07/09 00:06:38;;;;;;;3.90;3.38;;;;;;;;;;5068523;28;20301;-68
2023/07/09 00:09:06;;;;;;;3.42;3.13;;;;;;;;;;5068788;28;20237;-68
2023/07/09 00:11:33;;;;;;;5.38;3.78;;;;;;;;;;5067393;28;20210;-68
2023/07/09 00:14:01;;;;;;;4.75;3.63;;;;;;;;;;5076246;28;20201;-68
2023/07/09 00:16:28;;;;;;;3.95;3.55;;;;;;;;;;5074775;28;20210;-68
2023/07/09 00:18:56;;;;;;;4.25;3.28;;;;;;;;;;5076398;28;20206;-68
2023/07/09 00:21:25;;;;;;;4.18;3.60;;;;;;;;;;5070185;28;20202;-68
2023/07/09 00:23:52;;;;;;;4.13;3.53;;;;;;;;;;5079358;28;20313;-68
2023/07/09 00:26:22;;;;;;;3.75;3.35;;;;;;;;;;5074628;28;20206;-68
2023/07/09 00:28:50;;;;;;;4.30;3.45;;;;;;;;;;5074530;28;20293;-68
2023/07/09 00:31:18;;;;;;;5.63;3.53;;;;;;;;;;5070455;28;20249;-68
2023/07/09 00:33:46;;;;;;;4.22;3.55;;;;;;;;;;5073410;28;20197;-70
2023/07/09 00:36:17;;;;;;;5.00;3.55;;;;;;;;;;5071952;28;20198;-70
2023/07/09 00:38:47;;;;;;;5.72;3.80;;;;;;;;;;5064785;28;20217;-70
2023/07/09 00:41:17;;;;;;;4.65;3.70;;;;;;;;;;5076665;28;20209;-70
2023/07/09 00:43:45;;;;;;;5.03;3.70;;;;;;;;;;5074936;28;20218;-70
2023/07/09 00:46:16;;;;;;;5.20;3.58;;;;;;;;;;5070253;28;20206;-70
2023/07/09 00:48:43;;;;;;;3.75;3.45;;;;;;;;;;5075785;28;20240;-70
2023/07/09 00:51:12;;;;;;;4.93;3.38;;;;;;;;;;5071063;28;20295;-70
2023/07/09 00:53:45;;;;;;;7.38;4.10;;;;;;;;;;5069723;28;20286;-70
2023/07/09 00:56:14;;;;;;;4.28;3.80;;;;;;;;;;5065077;28;20249;-70
2023/07/09 00:58:47;;;;;;;4.20;3.80;;;;;;;;;;5073136;28;20195;-70
2023/07/09 01:01:15;;;;;;;4.05;3.65;;;;;;;;;;5067164;28;20207;-73
2023/07/09 01:03:46;;;;;;;5.43;3.80;;;;;;;;;;5069010;28;20210;-73
2023/07/09 01:06:14;;;;;;;4.03;3.60;;;;;;;;;;5077529;28;20211;-73
2023/07/09 01:08:42;;;;;;;4.20;3.80;;;;;;;;;;5071528;28;20237;-73
2023/07/09 01:11:21;;;;;;;3.72;3.30;;;;;;;;;;5074993;28;20206;-71
2023/07/09 01:13:48;;;;;;;4.20;3.80;;;;;;;;;;5068760;28;20251;-72
2023/07/09 01:16:16;;;;;;;5.80;3.72;;;;;;;;;;5069243;28;20497;-71
2023/07/09 01:18:44;;;;;;;4.85;4.00;;;;;;;;;;5066883;28;20392;-71
2023/07/09 01:21:15;;;;;;;4.35;3.80;;;;;;;;;;5072519;28;20194;-71
2023/07/09 01:23:43;;;;;;;4.05;3.65;;;;;;;;;;5076125;28;20287;-71
2023/07/09 01:26:12;;;;;;;4.03;3.65;;;;;;;;;;5072335;28;20241;-71
2023/07/09 01:28:41;;;;;;;3.97;3.60;;;;;;;;;;5075237;28;20205;-71
2023/07/09 01:31:09;;;;;;;4.53;4.13;;;;;;;;;;5074335;28;20202;-72
2023/07/09 01:33:36;;;;;;;4.00;3.42;;;;;;;;;;5072008;28;20198;-71
2023/07/09 01:36:03;;;;;;;5.13;3.67;;;;;;;;;;5075065;28;20207;-71
2023/07/09 01:38:32;;;;;;;4.25;3.53;;;;;;;;;;5074185;28;20191;-71
2023/07/09 01:40:59;;;;;;;4.28;3.78;;;;;;;;;;5064640;28;20207;-72
2023/07/09 01:43:27;;;;;;;4.05;3.72;;;;;;;;;;5070068;28;20198;-71
2023/07/09 01:45:57;;;;;;;5.30;3.78;;;;;;;;;;5068669;28;20227;-71
2023/07/09 01:48:25;;;;;;;4.85;3.50;;;;;;;;;;5075274;28;20202;-71
2023/07/09 01:50:54;;;;;;;4.03;3.63;;;;;;;;;;5065939;28;20240;-71
2023/07/09 01:53:24;;;;;;;4.00;3.60;;;;;;;;;;5070777;28;20301;-71
2023/07/09 01:55:54;;;;;;;4.57;3.47;;;;;;;;;;5069184;28;20212;-71
2023/07/09 01:58:24;;;;;;;4.18;3.65;;;;;;;;;;5071833;28;20213;-71
2023/07/09 02:00:51;;;;;;;4.13;3.67;;;;;;;;;;5069685;28;20210;-71
2023/07/09 02:03:19;;;;;;;4.13;3.72;;;;;;;;;;5067590;28;20212;-71
2023/07/09 02:05:46;;;;;;;6.03;3.70;;;;;;;;;;5068234;28;20230;-71
2023/07/09 02:08:13;;;;;;;4.85;4.00;;;;;;;;;;5076179;28;20241;-71
2023/07/09 02:10:40;;;;;;;4.40;3.72;;;;;;;;;;5079786;28;20206;-71
2023/07/09 02:13:09;;;;;;;4.30;3.53;;;;;;;;;;5073127;28;20216;-71
2023/07/09 02:15:37;;;;;;;4.88;3.83;;;;;;;;;;5070808;28;20199;-71
2023/07/09 02:18:04;;;;;;;4.25;3.83;;;;;;;;;;5071326;28;20205;-71
2023/07/09 02:20:31;;;;;;;5.07;3.90;;;;;;;;;;5067443;28;20280;-71
2023/07/09 02:22:58;;;;;;;6.63;4.30;;;;;;;;;;5071657;28;20206;-71
2023/07/09 02:25:26;;;;;;;7.28;4.00;;;;;;;;;;5071402;28;20218;-70
2023/07/09 02:27:53;;;;;;;5.05;4.10;;;;;;;;;;5071212;28;20206;-71
2023/07/09 02:30:22;;;;;;;3.90;3.50;;;;;;;;;;5072316;28;20209;-70
2023/07/09 02:32:49;;;;;;;4.22;3.63;;;;;;;;;;5071857;28;20195;-71
2023/07/09 02:35:16;;;;;;;4.38;3.97;;;;;;;;;;5072540;28;20198;-71
2023/07/09 02:37:43;;;;;;;4.65;3.63;;;;;;;;;;5072484;28;20198;-71
2023/07/09 02:40:11;;;;;;;4.47;4.07;;;;;;;;;;5077725;28;20217;-71
2023/07/09 02:42:38;;;;;;;4.45;4.05;;;;;;;;;;5081355;28;20280;-71
2023/07/09 02:45:06;;;;;;;5.43;4.07;;;;;;;;;;5072035;28;20219;-71
2023/07/09 02:47:35;;;;;;;4.25;3.85;;;;;;;;;;5081439;28;20258;-71
2023/07/09 02:50:02;;;;;;;4.10;3.80;;;;;;;;;;5076571;28;20206;-71
2023/07/09 02:52:30;;;;;;;3.90;3.60;;;;;;;;;;5071418;28;20195;-71
2023/07/09 02:54:57;;;;;;;4.75;3.70;;;;;;;;;;5070493;28;20209;-71
2023/07/09 02:57:24;;;;;;;4.93;3.88;;;;;;;;;;5069538;28;20296;-71
2023/07/09 02:59:51;;;;;;;5.43;3.65;;;;;;;;;;5078302;28;20203;-71
2023/07/09 03:02:18;;;;;;;3.50;3.20;;;;;;;;;;5074483;28;20216;-71
2023/07/09 03:04:47;;;;;;;3.95;3.55;;;;;;;;;;5071637;28;20223;-71
2023/07/09 03:07:14;;;;;;;3.95;3.55;;;;;;;;;;5078010;28;20213;-71
2023/07/09 03:09:41;;;;;;;3.90;3.30;;;;;;;;;;5075499;28;20210;-70
2023/07/09 03:12:09;;;;;;;3.90;3.58;;;;;;;;;;5075978;28;20208;-70
2023/07/09 03:14:37;;;;;;;4.30;3.75;;;;;;;;;;5073522;28;20201;-71
2023/07/09 03:17:04;;;;;;;4.03;3.30;;;;;;;;;;5075500;28;20214;-70
2023/07/09 03:19:32;;;;;;;4.15;3.75;;;;;;;;;;5069795;28;20263;-70
2023/07/09 03:22:00;;;;;;;5.93;4.00;;;;;;;;;;5079034;28;20252;-70
2023/07/09 03:24:27;;;;;;;4.10;3.70;;;;;;;;;;5077843;28;20222;-71
2023/07/09 03:26:55;;;;;;;4.75;3.83;;;;;;;;;;5074140;28;20202;-70
2023/07/09 03:29:22;;;;;;;5.20;4.13;;;;;;;;;;5074022;28;20202;-70
2023/07/09 03:31:50;;;;;;;5.05;3.70;;;;;;;;;;5075631;28;20261;-71
2023/07/09 03:34:17;;;;;;;9.10;4.15;;;;;;;;;;5074188;28;20198;-70
2023/07/09 03:36:44;;;;;;;4.10;3.70;;;;;;;;;;5077935;28;20208;-70
2023/07/09 03:39:12;;;;;;;4.60;4.10;;;;;;;;;;5078897;28;20202;-71
2023/07/09 03:41:40;;;;;;;6.65;3.97;;;;;;;;;;5074261;28;20210;-70
2023/07/09 03:44:07;;;;;;;5.50;3.50;;;;;;;;;;5078558;28;20202;-70
2023/07/09 03:46:34;;;;;;;5.25;3.97;;;;;;;;;;5074205;28;20279;-70
2023/07/09 03:49:02;;;;;;;4.03;3.15;;;;;;;;;;5069998;28;20203;-70
2023/07/09 03:51:29;;;;;;;4.25;3.80;;;;;;;;;;5076803;28;20194;-70
2023/07/09 03:53:56;;;;;;;3.88;3.50;;;;;;;;;;5074379;28;20217;-70
2023/07/09 03:56:25;;;;;;;4.97;3.90;;;;;;;;;;5079198;28;20199;-70
2023/07/09 03:58:52;;;;;;;3.80;3.40;;;;;;;;;;5072824;28;20202;-72
2023/07/09 04:01:19;;;;;;;5.10;3.55;;;;;;;;;;5071574;28;20210;-72
2023/07/09 04:03:46;;;;;;;5.40;3.80;;;;;;;;;;5076656;28;20206;-71
2023/07/09 04:06:14;;;;;;;4.13;3.72;;;;;;;;;;5074927;28;20225;-71
2023/07/09 04:08:41;;;;;;;5.50;3.95;;;;;;;;;;5073664;28;20234;-70
2023/07/09 04:11:08;;;;;;;4.82;3.70;;;;;;;;;;5074376;28;20293;-70
2023/07/09 04:13:37;;;;;;;4.35;3.78;;;;;;;;;;5075788;28;20208;-71
2023/07/09 04:16:04;;;;;;;3.90;3.55;;;;;;;;;;5078904;28;20206;-71
2023/07/09 04:18:31;;;;;;;3.97;3.55;;;;;;;;;;5071802;28;20290;-71
2023/07/09 04:20:58;;;;;;;4.80;3.70;;;;;;;;;;5081946;28;20202;-71
2023/07/09 04:23:25;;;;;;;4.75;3.70;;;;;;;;;;5073933;28;20208;-71
2023/07/09 04:25:53;;;;;;;4.07;3.67;;;;;;;;;;5077406;28;20227;-70
2023/07/09 04:28:20;;;;;;;4.75;3.65;;;;;;;;;;5078566;28;20289;-71
2023/07/09 04:30:50;;;;;;;5.30;3.65;;;;;;;;;;5071863;28;20206;-71
2023/07/09 04:33:18;;;;;;;4.22;3.67;;;;;;;;;;5077474;28;20205;-71
2023/07/09 04:35:46;;;;;;;4.65;3.80;;;;;;;;;;5077392;28;20202;-70
2023/07/09 04:38:13;;;;;;;4.93;3.50;;;;;;;;;;5073622;28;20209;-71
2023/07/09 04:40:40;;;;;;;5.10;3.88;;;;;;;;;;5071562;28;20205;-70
2023/07/09 04:43:07;;;;;;;4.90;3.95;;;;;;;;;;5076172;28;20216;-70
2023/07/09 04:45:35;;;;;;;6.78;3.72;;;;;;;;;;5077366;28;20213;-70
2023/07/09 04:48:04;;;;;;;4.32;3.60;;;;;;;;;;5072599;28;20209;-70
2023/07/09 04:50:31;;;;;;;5.18;4.03;;;;;;;;;;5074977;28;20202;-70
2023/07/09 04:52:58;;;;;;;6.57;4.18;;;;;;;;;;5077205;28;20221;-70
2023/07/09 04:55:26;;;;;;;5.07;4.13;;;;;;;;;;5070903;28;20195;-70
2023/07/09 04:57:53;;;;;;;4.32;3.78;;;;;;;;;;5075487;28;20210;-70
2023/07/09 05:00:20;;;;;;;5.70;3.90;;;;;;;;;;5073294;28;20206;-70
2023/07/09 05:02:48;;;;;;;5.03;3.90;;;;;;;;;;5077624;28;20206;-70
2023/07/09 05:05:16;;;;;;;4.57;3.92;;;;;;;;;;5071195;28;20227;-71
2023/07/09 05:07:43;;;;;;;4.60;4.20;;;;;;;;;;5073030;28;20241;-71
2023/07/09 05:10:11;;;;;;;4.13;3.72;;;;;;;;;;5076710;28;20206;-71
2023/07/09 05:12:48;;;;;;;4.57;3.95;;;;;;;;;;5071816;28;20289;-71
2023/07/09 05:15:15;;;;;;;5.32;4.38;;;;;;;;;;5078087;28;20285;-71
2023/07/09 05:17:42;;;;;;;6.97;4.50;;;;;;;;;;5076980;28;20214;-71
2023/07/09 05:20:10;;;;;;;5.25;4.55;;;;;;;;;;5073545;28;20233;-71
2023/07/09 05:22:39;;;;;;;5.70;4.00;;;;;;;;;;5069743;28;20209;-71
2023/07/09 05:25:06;;;;;;;4.43;4.03;;;;;;;;;;5071242;28;20199;-71
2023/07/09 05:27:33;;;;;;;5.07;4.20;;;;;;;;;;5074360;28;20195;-71
2023/07/09 05:30:01;;;;;;;5.10;4.60;;;;;;;;;;5069849;28;20305;-71
2023/07/09 05:32:28;;;;;;;6.65;4.20;;;;;;;;;;5065568;28;20274;-71
2023/07/09 05:34:55;;;;;;;6.32;4.40;;;;;;;;;;5066591;28;20198;-71
2023/07/09 05:37:22;;;;;;;7.00;4.40;;;;;;;;;;5072963;28;20222;-72
2023/07/09 05:39:51;;;;;;;5.18;4.53;;;;;;;;;;5079071;28;20207;-72
2023/07/09 05:42:18;;;;;;;5.22;4.28;;;;;;;;;;5069002;28;20205;-72
2023/07/09 05:44:46;;;;;;;5.00;3.92;;;;;;;;;;5078656;28;20243;-72
2023/07/09 05:47:13;;;;;;;5.35;4.15;;;;;;;;;;5073495;28;20224;-72
2023/07/09 05:49:40;;;;;;;5.97;3.92;;;;;;;;;;5081603;28;20230;-72
2023/07/09 05:52:08;;;;;;;6.18;4.25;;;;;;;;;;5073773;28;20205;-72
2023/07/09 05:54:35;;;;;;;4.78;4.28;;;;;;;;;;5072896;28;20198;-72
2023/07/09 05:57:04;;;;;;;4.40;4.00;;;;;;;;;;5069076;28;20198;-72
2023/07/09 05:59:31;;;;;;;4.40;3.97;;;;;;;;;;5069891;28;20199;-73
2023/07/09 06:02:00;;;;;;;4.50;4.10;;;;;;;;;;5073938;28;20198;-73
2023/07/09 06:04:28;;;;;;;4.82;4.40;;;;;;;;;;5078000;28;20210;-73
2023/07/09 06:06:55;;;;;;;4.82;4.05;;;;;;;;;;5077689;28;20226;-73
2023/07/09 06:09:23;;;;;;;6.15;4.60;;;;;;;;;;5070899;28;20250;-73
2023/07/09 06:11:50;;;;;;;4.65;4.22;;;;;;;;;;5073874;28;20209;-73
2023/07/09 06:14:19;;;;;;;5.00;4.07;;;;;;;;;;5077300;28;20274;-73
2023/07/09 06:16:46;;;;;;;4.82;4.15;;;;;;;;;;5076569;28;20293;-73
2023/07/09 06:19:14;;;;;;;5.40;4.40;;;;;;;;;;5074015;28;20202;-73
2023/07/09 06:21:41;;;;;;;5.82;4.20;;;;;;;;;;5079941;28;20210;-73
2023/07/09 06:24:09;;;;;;;4.90;4.00;;;;;;;;;;5071026;28;20214;-69
2023/07/09 06:26:36;;;;;;;5.28;4.03;;;;;;;;;;5078780;28;20222;-69
2023/07/09 06:29:03;;;;;;;4.60;4.18;;;;;;;;;;5074836;28;20203;-69
2023/07/09 06:31:32;;;;;;;4.68;4.13;;;;;;;;;;5074631;28;20191;-69
2023/07/09 06:33:59;;;;;;;6.65;4.57;;;;;;;;;;5075060;28;20274;-69
2023/07/09 06:36:26;;;;;;;7.28;4.80;;;;;;;;;;5072194;28;20271;-68
2023/07/09 06:38:54;;;;;;;6.68;3.90;;;;;;;;;;5072532;28;20199;-69
2023/07/09 06:41:21;;;;;;;4.70;4.13;;;;;;;;;;5072720;28;20351;-69
2023/07/09 06:43:48;;;;;;;5.25;4.75;;;;;;;;;;5072662;28;20206;-68
2023/07/09 06:46:16;;;;;;;4.95;3.90;;;;;;;;;;5073793;28;20253;-69
2023/07/09 06:48:44;;;;;;;6.15;4.38;;;;;;;;;;5073304;28;20203;-69
2023/07/09 06:51:11;;;;;;;5.35;4.13;;;;;;;;;;5078788;28;20205;-68
2023/07/09 06:53:39;;;;;;;6.38;4.60;;;;;;;;;;5073290;28;20203;-69
2023/07/09 06:56:07;;;;;;;4.90;4.05;;;;;;;;;;5078042;28;20256;-69
2023/07/09 06:58:34;;;;;;;4.88;4.10;;;;;;;;;;5077319;28;20210;-69
2023/07/09 07:01:03;;;;;;;4.50;4.10;;;;;;;;;;5076433;28;20282;-69
2023/07/09 07:03:30;;;;;;;5.65;4.80;;;;;;;;;;5072534;28;20210;-69
2023/07/09 07:05:59;;;;;;;4.68;4.13;;;;;;;;;;5079135;28;20256;-69
2023/07/09 07:08:27;;;;;;;4.75;4.15;;;;;;;;;;5070719;28;20328;-68
2023/07/09 07:11:01;;;;;;;4.57;4.13;;;;;;;;;;5076054;28;20232;-69
2023/07/09 07:13:28;;;;;;;5.30;4.45;;;;;;;;;;5072714;28;20259;-69
2023/07/09 07:15:56;;;;;;;6.78;4.28;;;;;;;;;;5071306;28;20203;-71
2023/07/09 07:18:23;;;;;;;5.00;4.18;;;;;;;;;;5075204;28;20254;-71
2023/07/09 07:20:50;;;;;;;4.20;3.83;;;;;;;;;;5072283;28;20210;-68
2023/07/09 07:23:19;;;;;;;4.45;3.92;;;;;;;;;;5071085;28;20229;-68
2023/07/09 07:25:46;;;;;;;6.38;4.32;;;;;;;;;;5077850;28;20333;-68
2023/07/09 07:28:14;;;;;;;6.28;4.35;;;;;;;;;;5079323;28;20205;-69
2023/07/09 07:30:41;;;;;;;5.72;4.40;;;;;;;;;;5075230;28;20199;-70
2023/07/09 07:33:08;;;;;;;5.07;4.20;;;;;;;;;;5064761;28;20292;-70
2023/07/09 07:35:36;;;;;;;4.47;3.72;;;;;;;;;;5075006;28;20298;-69
2023/07/09 07:38:03;;;;;;;4.88;3.88;;;;;;;;;;5071514;28;20207;-70
2023/07/09 07:40:32;;;;;;;4.40;3.90;;;;;;;;;;5079052;28;20210;-70
2023/07/09 07:42:59;;;;;;;5.75;4.00;;;;;;;;;;5074252;28;20212;-70
2023/07/09 07:45:26;;;;;;;7.18;3.60;;;;;;;;;;5070724;28;20198;-70
2023/07/09 07:47:53;;;;;;;4.82;4.38;;;;;;;;;;5065741;28;20226;-70
2023/07/09 07:50:21;;;;;;;4.00;3.70;;;;;;;;;;5070736;28;20208;-70
2023/07/09 07:52:48;;;;;;;4.95;4.35;;;;;;;;;;5069543;28;20279;-70
2023/07/09 07:55:15;;;;;;;5.72;4.35;;;;;;;;;;5076988;28;20202;-71
2023/07/09 07:57:44;;;;;;;5.47;3.88;;;;;;;;;;5072789;28;20190;-70
2023/07/09 08:00:12;;;;;;;7.25;4.45;;;;;;;;;;5076119;28;20207;-73
2023/07/09 08:02:39;;;;;;;5.28;4.50;;;;;;;;;;5073546;28;20202;-74
2023/07/09 08:05:07;;;;;;;4.20;3.80;;;;;;;;;;5068166;28;20206;-75
2023/07/09 08:07:34;;;;;;;4.57;3.53;;;;;;;;;;5074938;28;20322;-75
2023/07/09 08:10:01;;;;;;;6.18;3.85;;;;;;;;;;5074151;28;20233;-74
2023/07/09 08:12:28;;;;;;;5.70;3.53;;;;;;;;;;5073520;28;20212;-73
2023/07/09 08:14:57;;;;;;;6.32;3.65;;;;;;;;;;5069310;28;20203;-74
2023/07/09 08:17:24;;;;;;;8.60;3.42;;;;;;;;;;5079263;28;20214;-74
2023/07/09 08:19:53;;;;;;;3.70;3.35;;;;;;;;;;5074695;28;20199;-75
2023/07/09 08:22:21;;;;;;;3.83;3.53;;;;;;;;;;5071818;28;20206;-74
2023/07/09 08:24:49;;;;;;;6.50;3.60;;;;;;;;;;5077613;28;20293;-74
2023/07/09 08:27:16;;;;;;;4.18;3.72;;;;;;;;;;5076859;28;20214;-73
2023/07/09 08:29:43;;;;;;;4.00;3.60;;;;;;;;;;5071292;28;20198;-73
2023/07/09 08:32:12;;;;;;;6.68;3.33;;;;;;;;;;5069275;28;20205;-73
2023/07/09 08:34:40;;;;;;;3.90;3.50;;;;;;;;;;5077493;28;20205;-73
2023/07/09 08:37:07;;;;;;;3.70;3.15;;;;;;;;;;5073521;28;20201;-75
2023/07/09 08:39:34;;;;;;;4.30;3.83;;;;;;;;;;5070557;28;20210;-65
2023/07/09 08:42:04;;;;;;;5.97;3.60;;;;;;;;;;5077258;28;20198;-66
2023/07/09 08:44:39;;;;;;;4.68;3.50;;;;;;;;;;5079418;28;20207;-65
2023/07/09 08:47:08;;;;;;;4.18;3.60;;;;;;;;;;5073361;28;20253;-65
2023/07/09 08:49:40;;;;;;;4.35;3.20;;;;;;;;;;5078570;28;20203;-65
2023/07/09 08:52:12;;;;;;;4.60;3.40;;;;;;;;;;5071423;28;20231;-64
2023/07/09 08:54:39;;;;;;;7.22;3.78;;;;;;;;;;5072689;28;20198;-65
2023/07/09 08:57:11;;;;;;;4.43;3.40;;;;;;;;;;5073447;28;20195;-65
2023/07/09 08:59:38;;;;;;;3.55;2.88;;;;;;;;;;5073409;28;20201;-64
2023/07/09 09:02:15;;;;;;;3.50;3.20;;;;;;;;;;5074425;28;20194;-67
2023/07/09 09:04:44;;;;;;;6.15;3.38;;;;;;;;;;5070917;28;20214;-67
2023/07/09 09:07:18;;;;;;;4.93;3.45;;;;;;;;;;5067757;28;20214;-66
2023/07/09 09:09:51;;;;;;;3.58;3.28;;;;;;;;;;5067887;28;20217;-67
2023/07/09 09:12:21;;;;;;;4.93;3.22;;;;;;;;;;5068776;28;20199;-66
2023/07/09 09:14:52;;;;;;;4.25;3.17;;;;;;;;;;5064506;28;20214;-66
2023/07/09 09:17:21;;;;;;;4.10;3.15;;;;;;;;;;5067556;28;20203;-67
2023/07/09 09:19:51;;;;;;;3.85;3.33;;;;;;;;;;5073802;28;20210;-67
2023/07/09 09:22:22;;;;;;;3.45;3.15;;;;;;;;;;5073195;28;20298;-66
2023/07/09 09:24:56;;;;;;;4.15;3.47;;;;;;;;;;5077901;28;20296;-65
2023/07/09 09:27:24;;;;;;;4.63;3.70;;;;;;;;;;5068873;28;20211;-68
2023/07/09 09:29:51;;;;;;;5.25;3.05;;;;;;;;;;5073675;28;20203;-65
2023/07/09 09:32:24;;;;;;;3.35;3.05;;;;;;;;;;5070062;28;20220;-65
2023/07/09 09:34:52;;;;;;;3.70;3.05;;;;;;;;;;5070468;28;20209;-66
2023/07/09 09:37:25;;;;;;;4.00;3.30;;;;;;;;;;5072757;28;20200;-65
2023/07/09 09:39:52;;;;;;;3.72;3.20;;;;;;;;;;5070985;28;20297;-64
2023/07/09 09:42:19;;;;;;;4.60;3.58;;;;;;;;;;5069672;28;20290;-65
2023/07/09 09:44:47;;;;;;;6.00;3.55;;;;;;;;;;5072104;28;20213;-65
2023/07/09 09:47:14;;;;;;;3.78;3.17;;;;;;;;;;5072283;28;20241;-65
2023/07/09 09:49:42;;;;;;;5.38;3.38;;;;;;;;;;5073747;28;20202;-66
2023/07/09 09:52:14;;;;;;;3.97;3.50;;;;;;;;;;5070819;28;20220;-65
2023/07/09 09:54:42;;;;;;;9.18;3.45;;;;;;;;;;5076767;28;20198;-66
2023/07/09 09:57:17;;;;;;;3.58;3.28;;;;;;;;;;5073842;28;20270;-66
2023/07/09 09:59:44;;;;;;;3.80;3.40;;;;;;;;;;5076314;28;20210;-65
2023/07/09 10:02:18;;;;;;;5.88;3.85;;;;;;;;;;5071283;28;20203;-66
2023/07/09 10:04:45;;;;;;;3.78;3.47;;;;;;;;;;5073959;28;20210;-65
2023/07/09 10:07:18;;;;;;;4.53;3.80;;;;;;;;;;5078540;28;20233;-66
2023/07/09 10:09:49;;;;;;;4.03;3.35;;;;;;;;;;5072548;28;20293;-67
2023/07/09 10:12:18;;;;;;;4.22;3.40;;;;;;;;;;5075524;28;20209;-65
2023/07/09 10:14:50;;;;;;;4.93;3.60;;;;;;;;;;5073988;28;20198;-67
2023/07/09 10:17:21;;;;;;;5.68;3.50;;;;;;;;;;5067245;28;20209;-66
2023/07/09 10:19:51;;;;;;;5.40;3.40;;;;;;;;;;5078420;28;20221;-67
2023/07/09 10:22:24;;;;;;;4.18;3.45;;;;;;;;;;5069448;28;20210;-68
2023/07/09 10:24:56;;;;;;;4.45;3.28;;;;;;;;;;5080153;28;20197;-66
2023/07/09 10:27:31;;;;;;;6.25;3.20;;;;;;;;;;5070183;28;20225;-66
2023/07/09 10:30:16;;;;;;;3.08;2.78;;;;;;;;;;5068058;28;20206;-65
2023/07/09 10:32:49;;;;;;;3.63;2.95;;;;;;;;;;5067639;28;20213;-65
2023/07/09 10:35:19;;;;;;;3.40;3.10;;;;;;;;;;5072777;28;20217;-64
2023/07/09 10:37:55;;;;;;;3.63;3.22;;;;;;;;;;5072970;28;20199;-64
2023/07/09 10:40:26;;;;;;;4.20;3.03;;;;;;;;;;5069718;28;20201;-65
2023/07/09 10:42:56;;;;;;;4.18;3.33;;;;;;;;;;5076457;28;20213;-65
2023/07/09 10:45:25;;;;;;;3.63;3.25;;;;;;;;;;5074087;28;20309;-65
2023/07/09 10:47:57;;;;;;;4.30;3.83;;;;;;;;;;5071615;28;20291;-65
2023/07/09 10:50:28;;;;;;;6.95;3.28;;;;;;;;;;5073907;28;20226;-64
2023/07/09 10:53:00;;;;;;;4.18;3.58;;;;;;;;;;5072983;28;20293;-66
2023/07/09 10:55:30;;;;;;;3.90;3.35;;;;;;;;;;5074277;28;20202;-65
2023/07/09 10:58:00;;;;;;;5.68;3.38;;;;;;;;;;5071348;28;20195;-65
2023/07/09 11:00:34;;;;;;;3.95;3.55;;;;;;;;;;5086265;28;20212;-64
2023/07/09 11:03:04;;;;;;;4.70;3.30;;;;;;;;;;5076259;28;20298;-65
2023/07/09 11:05:31;;;;;;;4.78;3.50;;;;;;;;;;5074228;28;20221;-67
2023/07/09 11:08:02;;;;;;;4.50;3.30;;;;;;;;;;5078701;28;20286;-64
2023/07/09 11:10:33;;;;;;;6.18;3.47;;;;;;;;;;5073174;28;20324;-66
2023/07/09 11:13:03;;;;;;;6.07;3.35;;;;;;;;;;5074428;28;20229;-65
2023/07/09 11:15:33;;;;;;;3.78;3.40;;;;;;;;;;5070646;28;20214;-64
2023/07/09 11:18:00;;;;;;;8.82;3.75;;;;;;;;;;5075019;28;20204;-65
2023/07/09 11:20:33;;;;;;;4.40;4.00;;;;;;;;;;5074513;28;20206;-65
2023/07/09 11:23:05;;;;;;;7.35;3.15;;;;;;;;;;5080188;28;20209;-65
2023/07/09 11:25:33;;;;;;;4.63;3.30;;;;;;;;;;5070137;28;20243;-65
2023/07/09 11:28:04;;;;;;;5.50;3.50;;;;;;;;;;5068265;28;20296;-65
2023/07/09 11:30:32;;;;;;;5.28;3.60;;;;;;;;;;5069447;28;20194;-64
2023/07/09 11:33:00;;;;;;;4.50;3.60;;;;;;;;;;5066709;28;20205;-66
2023/07/09 11:35:28;;;;;;;3.42;3.13;;;;;;;;;;5074848;28;20255;-64
2023/07/09 11:37:58;;;;;;;3.67;3.15;;;;;;;;;;5076664;28;20321;-64
2023/07/09 11:40:27;;;;;;;3.50;3.20;;;;;;;;;;5079636;28;20259;-65
2023/07/09 11:42:55;;;;;;;5.85;3.53;;;;;;;;;;5072533;28;20257;-64
2023/07/09 11:45:26;;;;;;;3.53;3.22;;;;;;;;;;5074309;28;20205;-63
2023/07/09 11:47:59;;;;;;;5.68;3.47;;;;;;;;;;5068556;28;20226;-64
2023/07/09 11:50:29;;;;;;;5.07;3.65;;;;;;;;;;5073844;28;20283;-65
2023/07/09 11:52:58;;;;;;;4.35;3.60;;;;;;;;;;5067215;28;20217;-65
2023/07/09 11:55:31;;;;;;;4.25;2.97;;;;;;;;;;5075361;28;20210;-64
2023/07/09 11:57:59;;;;;;;5.03;3.63;;;;;;;;;;5070558;28;20198;-65
2023/07/09 12:00:28;;;;;;;3.85;3.40;;;;;;;;;;5078722;28;20291;-65
2023/07/09 12:02:55;;;;;;;6.82;3.40;;;;;;;;;;5073429;28;20201;-63
2023/07/09 12:05:26;;;;;;;3.95;3.30;;;;;;;;;;5073379;28;20265;-67
2023/07/09 12:07:54;;;;;;;5.13;3.40;;;;;;;;;;5075325;28;20292;-65
2023/07/09 12:10:23;;;;;;;6.28;4.30;;;;;;;;;;5068781;28;20212;-63
2023/07/09 12:12:56;;;;;;;7.07;4.20;;;;;;;;;;5075708;28;20214;-65
2023/07/09 12:15:24;;;;;;;4.93;3.78;;;;;;;;;;5069960;28;20213;-67
2023/07/09 12:17:56;;;;;;;4.03;3.55;;;;;;;;;;5066910;28;20248;-63
2023/07/09 12:20:25;;;;;;;6.30;3.45;;;;;;;;;;5066769;28;20206;-64
2023/07/09 12:22:52;;;;;;;4.53;3.65;;;;;;;;;;5069305;28;20206;-64
2023/07/09 12:25:22;;;;;;;4.82;3.85;;;;;;;;;;5067816;28;20211;-66
2023/07/09 12:27:49;;;;;;;4.25;3.72;;;;;;;;;;5061224;28;20222;-67
2023/07/09 12:30:18;;;;;;;5.03;3.50;;;;;;;;;;5073281;28;20206;-65
2023/07/09 12:32:46;;;;;;;7.63;3.90;;;;;;;;;;5077021;28;20198;-65
2023/07/09 12:35:14;;;;;;;6.35;3.63;;;;;;;;;;5076957;28;20201;-64
2023/07/09 12:37:43;;;;;;;4.53;3.88;;;;;;;;;;5078568;28;20201;-65
2023/07/09 12:40:13;;;;;;;5.38;3.83;;;;;;;;;;5076710;28;20233;-66
2023/07/09 12:42:41;;;;;;;4.45;3.50;;;;;;;;;;5081401;28;20204;-66
2023/07/09 12:45:15;;;;;;;4.53;3.15;;;;;;;;;;5081782;28;20206;-65
2023/07/09 12:47:43;;;;;;;4.97;3.53;;;;;;;;;;5072956;28;20202;-65
2023/07/09 12:50:21;;;;;;;6.00;3.58;;;;;;;;;;5079689;28;20289;-65
2023/07/09 12:52:49;;;;;;;5.13;3.30;;;;;;;;;;5070150;28;20216;-66
2023/07/09 12:55:25;;;;;;;4.45;3.67;;;;;;;;;;5077671;28;20273;-66
2023/07/09 12:57:52;;;;;;;5.00;3.38;;;;;;;;;;5078948;28;20202;-64
2023/07/09 13:00:20;;;;;;;3.85;3.45;;;;;;;;;;5073253;28;20202;-65
2023/07/09 13:02:53;;;;;;;5.82;3.50;;;;;;;;;;5080958;28;20221;-65
2023/07/09 13:05:21;;;;;;;6.50;4.00;;;;;;;;;;5075598;28;20210;-68
2023/07/09 13:07:49;;;;;;;4.72;3.47;;;;;;;;;;5080621;28;20241;-65
2023/07/09 13:10:17;;;;;;;5.25;3.55;;;;;;;;;;5078836;28;20207;-65
2023/07/09 13:12:47;;;;;;;5.68;4.00;;;;;;;;;;5083231;28;20204;-66
2023/07/09 13:15:35;;;;;;;4.55;4.10;;;;;;;;;;5073991;28;20234;-66
2023/07/09 13:18:04;;;;;;;7.10;4.03;;;;;;;;;;5067656;28;20194;-66
2023/07/09 13:20:32;;;;;;;6.30;4.18;;;;;;;;;;5077353;28;20213;-66
2023/07/09 13:22:59;;;;;;;8.18;3.97;;;;;;;;;;5076152;28;20202;-66
2023/07/09 13:25:27;;;;;;;7.43;4.15;;;;;;;;;;5071907;28;20292;-65
2023/07/09 13:27:55;;;;;;;4.13;3.63;;;;;;;;;;5077101;28;20212;-66
2023/07/09 13:30:22;;;;;;;5.00;3.92;;;;;;;;;;5074640;28;20206;-66
2023/07/09 13:32:51;;;;;;;5.07;4.22;;;;;;;;;;5076979;28;20231;-66
2023/07/09 13:35:20;;;;;;;7.88;3.70;;;;;;;;;;5069342;28;20194;-66
2023/07/09 13:37:48;;;;;;;5.43;3.55;;;;;;;;;;5079583;28;20296;-66
2023/07/09 13:40:16;;;;;;;5.30;3.75;;;;;;;;;;5077643;28;20240;-66
2023/07/09 13:42:43;;;;;;;9.18;4.28;;;;;;;;;;5071340;28;20205;-66
2023/07/09 13:45:18;;;;;;;13.23;4.35;;;;;;;;;;5071193;28;20215;-65
2023/07/09 13:47:45;;;;;;;14.65;4.95;;;;;;;;;;5080183;28;20205;-65
2023/07/09 13:50:14;;;;;;;11.93;3.75;;;;;;;;;;5071254;28;20214;-67
2023/07/09 13:52:42;;;;;;;5.07;3.60;;;;;;;;;;5069564;28;20277;-67
2023/07/09 13:55:16;;;;;;;10.82;4.07;;;;;;;;;;5073587;28;20213;-65
2023/07/09 13:57:44;;;;;;;6.43;4.00;;;;;;;;;;5080510;28;20204;-67
2023/07/09 14:00:12;;;;;;;5.13;3.20;;;;;;;;;;5082509;28;20240;-67
2023/07/09 14:02:39;;;;;;;7.63;3.90;;;;;;;;;;5081192;28;20210;-69
2023/07/09 14:05:08;;;;;;;5.65;3.88;;;;;;;;;;5079153;28;20194;-70
2023/07/09 14:07:36;;;;;;;5.20;3.70;;;;;;;;;;5075058;28;20321;-67
2023/07/09 14:10:06;;;;;;;5.40;4.03;;;;;;;;;;5075997;28;20222;-67
2023/07/09 14:12:34;;;;;;;4.55;3.30;;;;;;;;;;5076212;28;20212;-70
2023/07/09 14:15:01;;;;;;;5.97;3.40;;;;;;;;;;5072353;28;20289;-71
2023/07/09 14:17:30;;;;;;;5.35;3.80;;;;;;;;;;5074533;28;20301;-70
2023/07/09 14:19:59;;;;;;;9.73;3.80;;;;;;;;;;5074554;28;20245;-68
2023/07/09 14:22:29;;;;;;;4.72;3.30;;;;;;;;;;5074666;28;20253;-80
2023/07/09 14:24:56;;;;;;;4.45;3.25;;;;;;;;;;5074526;28;20245;-68
2023/07/09 14:27:25;;;;;;;5.35;3.60;;;;;;;;;;5076692;28;20202;-69
2023/07/09 14:29:52;;;;;;;4.57;3.05;;;;;;;;;;5073764;28;20226;-70
2023/07/09 14:32:31;;;;;;;3.72;2.58;;;;;;;;;;5071480;28;20213;-69
2023/07/09 14:34:59;;;;;;;3.85;3.00;;;;;;;;;;5083343;28;20501;-71
2023/07/09 14:37:26;;;;;;;5.07;2.85;;;;;;;;;;5078082;28;20292;-69
2023/07/09 14:39:53;;;;;;;5.30;2.75;;;;;;;;;;5080306;28;20237;-71
2023/07/09 14:42:22;;;;;;;3.47;2.88;;;;;;;;;;5082946;28;20206;-67
2023/07/09 14:44:50;;;;;;;5.15;2.85;;;;;;;;;;5081851;28;20218;-72
2023/07/09 14:47:18;;;;;;;3.97;2.70;;;;;;;;;;5072443;28;20210;-71
2023/07/09 14:49:45;;;;;;;4.85;3.20;;;;;;;;;;5076557;28;20294;-71
2023/07/09 14:52:13;;;;;;;4.45;2.80;;;;;;;;;;5077421;28;20198;-69